Ten'yo — JBBC — position and weather

sailwx.info

Track history (hours):
 
Tides and Currents Weather Stations Pressure Air Temp Water Temp Dewpoint Dewpoint Depression Visibility Wind Speed Wind Dir Waves Ship Positions

Oceanographic research ship Ten'yo (Japan)

Detailed information on ship capabilities available from University of Delaware's Ocean Information Center.

Last reported at 2020-Jan-08 20:57 UTC. Time now 2020-Jan-21 22:34 UTC.
Position N 35°09' E 139°45'.
Warning: this ship's position is 13 days out of date.

Length 56 m; draft 3 m.

Type: Other ship. MMSI: 431100350.

Date/timePositionNaut miles runAvg speedWind from/ knotsBaromVisibWave heightAir tempDewpointWater temp
2020-Jan-08 20:57N 35°09' E 139°45'410.0
2020-Jan-08 20:31N 35°13' E 139°46'10 9.9
2020-Jan-08 19:31N 35°23' E 139°42'5 9.5
2020-Jan-08 19:01N 35°26' E 139°46'9 8.6
2020-Jan-08 17:59N 35°32' E 139°54'0 1.0
2020-Jan-08 17:31N 35°32' E 139°54'0 0.2
2020-Jan-08 15:31N 35°33' E 139°54'0 0.4
2020-Jan-08 14:58N 35°32' E 139°54'0 0.4
2020-Jan-08 14:00N 35°33' E 139°54'1 0.4
2020-Jan-08 12:38N 35°32' E 139°54'0 0.1
2020-Jan-08 11:30N 35°32' E 139°54'0 0.1
2020-Jan-08 10:59N 35°32' E 139°54'1 0.6
2020-Jan-08 09:20N 35°31' E 139°54'0 0.9
2020-Jan-08 09:00N 35°32' E 139°54'0 0.6
2020-Jan-08 08:30N 35°32' E 139°54'1 2.6
2020-Jan-08 07:57N 35°32' E 139°52'510.2
2020-Jan-08 07:30N 35°35' E 139°48'  
2020-Jan-05 23:29N 35°38' E 139°47'0 0.0
2020-Jan-05 22:59N 35°38' E 139°47'0 0.0
2020-Jan-05 22:29N 35°38' E 139°47'0 0.0
2020-Jan-05 21:53N 35°38' E 139°47'0 0.0
2020-Jan-05 18:23N 35°38' E 139°47'0 0.0
2020-Jan-05 14:59N 35°38' E 139°47'0 0.0
2020-Jan-05 09:04N 35°38' E 139°47'0 0.0
2020-Jan-05 08:04N 35°38' E 139°47'0 0.0
2020-Jan-05 07:16N 35°38' E 139°47'0 0.0
2020-Jan-05 06:58N 35°38' E 139°47'0 0.0
2020-Jan-05 05:16N 35°38' E 139°47'0 0.0
2020-Jan-04 22:28N 35°38' E 139°47'0 0.0
2020-Jan-04 20:40N 35°38' E 139°47'0 0.0
2020-Jan-04 20:16N 35°38' E 139°47'0 0.0
2020-Jan-04 19:28N 35°38' E 139°47'0 0.0
2020-Jan-04 16:58N 35°38' E 139°47'0 0.0
2020-Jan-04 15:58N 35°38' E 139°47'0 0.0
2020-Jan-04 14:46N 35°38' E 139°47'0 0.0
2020-Jan-04 13:58N 35°38' E 139°47'0 0.0
2020-Jan-04 08:22N 35°38' E 139°47'0 0.0
2020-Jan-04 07:34N 35°38' E 139°47'0 0.0
2020-Jan-04 04:58N 35°38' E 139°47'0 0.0
2020-Jan-03 20:52N 35°38' E 139°47'0 0.0
2020-Jan-03 18:57N 35°38' E 139°47'0 0.0
2020-Jan-03 13:27N 35°38' E 139°47'0 0.0
2020-Jan-03 12:09N 35°38' E 139°47'0 0.0
2020-Jan-03 08:57N 35°38' E 139°47'0 0.0
2020-Jan-03 05:09N 35°38' E 139°47'0 0.0
2020-Jan-02 21:03N 35°38' E 139°47'0 0.0
2020-Jan-02 20:45N 35°38' E 139°47'0 0.0
2020-Jan-02 19:51N 35°38' E 139°47'0 0.0
2020-Jan-02 15:51N 35°38' E 139°47'0 0.0
2020-Jan-02 14:27N 35°38' E 139°47'0 0.0
2020-Jan-02 13:39N 35°38' E 139°47'0 0.0
2020-Jan-02 07:21N 35°38' E 139°47'0 0.0
2020-Jan-02 00:08N 35°38' E 139°47'0 0.0
2020-Jan-01 20:44N 35°38' E 139°47'0 0.0
2020-Jan-01 12:44N 35°38' E 139°47'0 0.0
2020-Jan-01 11:44N 35°38' E 139°47'0 0.0
2020-Jan-01 11:01N 35°38' E 139°47'0 0.0
2020-Jan-01 10:00N 35°38' E 139°47'0 0.0
2020-Jan-01 08:29N 35°38' E 139°47'0 0.0
2020-Jan-01 07:18N 35°38' E 139°47'0 0.0
2020-Jan-01 05:40N 35°38' E 139°47'0 0.0
2020-Jan-01 03:29N 35°38' E 139°47'0 0.0
2020-Jan-01 02:28N 35°38' E 139°47'0 0.0
2020-Jan-01 01:30N 35°38' E 139°47'0 0.0
2019-Dec-31 23:30N 35°38' E 139°47'0 0.0
2019-Dec-31 21:59N 35°38' E 139°47'0 0.0
2019-Dec-31 21:00N 35°38' E 139°47'0 0.0
2019-Dec-31 20:30N 35°38' E 139°47'0 0.0
2019-Dec-31 18:58N 35°38' E 139°47'0 0.0
2019-Dec-31 17:55N 35°38' E 139°47'0 0.0
2019-Dec-31 17:06N 35°38' E 139°47'0 0.0
2019-Dec-31 15:30N 35°38' E 139°47'0 0.0
2019-Dec-31 14:29N 35°38' E 139°47'0 0.0
2019-Dec-31 14:00N 35°38' E 139°47'0 0.0
2019-Dec-31 12:28N 35°38' E 139°47'0 0.0
2019-Dec-31 11:05N 35°38' E 139°47'0 0.0
2019-Dec-31 07:58N 35°38' E 139°47'  
Track history (hours):
 
Tides and Currents Weather Stations Pressure Air Temp Water Temp Dewpoint Dewpoint Depression Visibility Wind Speed Wind Dir Waves Ship Positions

Oceanographic research ship Ten'yo (Japan)

Detailed information on ship capabilities available from University of Delaware's Ocean Information Center.

Last reported at 2020-Jan-08 20:57 UTC. Time now 2020-Jan-21 22:34 UTC.
Position N 35°09' E 139°45'.
Warning: this ship's position is 13 days out of date.

Length 56 m; draft 3 m.

Type: Other ship. MMSI: 431100350.

Date/timePositionNaut miles runAvg speedWind from/ knotsBaromVisibWave heightAir tempDewpointWater temp
2020-Jan-08 20:57N 35°09' E 139°45'410.0
2020-Jan-08 20:31N 35°13' E 139°46'10 9.9
2020-Jan-08 19:31N 35°23' E 139°42'5 9.5
2020-Jan-08 19:01N 35°26' E 139°46'9 8.6
2020-Jan-08 17:59N 35°32' E 139°54'0 1.0
2020-Jan-08 17:31N 35°32' E 139°54'0 0.2
2020-Jan-08 15:31N 35°33' E 139°54'0 0.4
2020-Jan-08 14:58N 35°32' E 139°54'0 0.4
2020-Jan-08 14:00N 35°33' E 139°54'1 0.4
2020-Jan-08 12:38N 35°32' E 139°54'0 0.1
2020-Jan-08 11:30N 35°32' E 139°54'0 0.1
2020-Jan-08 10:59N 35°32' E 139°54'1 0.6
2020-Jan-08 09:20N 35°31' E 139°54'0 0.9
2020-Jan-08 09:00N 35°32' E 139°54'0 0.6
2020-Jan-08 08:30N 35°32' E 139°54'1 2.6
2020-Jan-08 07:57N 35°32' E 139°52'510.2
2020-Jan-08 07:30N 35°35' E 139°48'  
2020-Jan-05 23:29N 35°38' E 139°47'0 0.0
2020-Jan-05 22:59N 35°38' E 139°47'0 0.0
2020-Jan-05 22:29N 35°38' E 139°47'0 0.0
2020-Jan-05 21:53N 35°38' E 139°47'0 0.0
2020-Jan-05 18:23N 35°38' E 139°47'0 0.0
2020-Jan-05 14:59N 35°38' E 139°47'0 0.0
2020-Jan-05 09:04N 35°38' E 139°47'0 0.0
2020-Jan-05 08:04N 35°38' E 139°47'0 0.0
2020-Jan-05 07:16N 35°38' E 139°47'0 0.0
2020-Jan-05 06:58N 35°38' E 139°47'0 0.0
2020-Jan-05 05:16N 35°38' E 139°47'0 0.0
2020-Jan-04 22:28N 35°38' E 139°47'0 0.0
2020-Jan-04 20:40N 35°38' E 139°47'0 0.0
2020-Jan-04 20:16N 35°38' E 139°47'0 0.0
2020-Jan-04 19:28N 35°38' E 139°47'0 0.0
2020-Jan-04 16:58N 35°38' E 139°47'0 0.0
2020-Jan-04 15:58N 35°38' E 139°47'0 0.0
2020-Jan-04 14:46N 35°38' E 139°47'0 0.0
2020-Jan-04 13:58N 35°38' E 139°47'0 0.0
2020-Jan-04 08:22N 35°38' E 139°47'0 0.0
2020-Jan-04 07:34N 35°38' E 139°47'0 0.0
2020-Jan-04 04:58N 35°38' E 139°47'0 0.0
2020-Jan-03 20:52N 35°38' E 139°47'0 0.0
2020-Jan-03 18:57N 35°38' E 139°47'0 0.0
2020-Jan-03 13:27N 35°38' E 139°47'0 0.0
2020-Jan-03 12:09N 35°38' E 139°47'0 0.0
2020-Jan-03 08:57N 35°38' E 139°47'0 0.0
2020-Jan-03 05:09N 35°38' E 139°47'0 0.0
2020-Jan-02 21:03N 35°38' E 139°47'0 0.0
2020-Jan-02 20:45N 35°38' E 139°47'0 0.0
2020-Jan-02 19:51N 35°38' E 139°47'0 0.0
2020-Jan-02 15:51N 35°38' E 139°47'0 0.0
2020-Jan-02 14:27N 35°38' E 139°47'0 0.0
2020-Jan-02 13:39N 35°38' E 139°47'0 0.0
2020-Jan-02 07:21N 35°38' E 139°47'0 0.0
2020-Jan-02 00:08N 35°38' E 139°47'0 0.0
2020-Jan-01 20:44N 35°38' E 139°47'0 0.0
2020-Jan-01 12:44N 35°38' E 139°47'0 0.0
2020-Jan-01 11:44N 35°38' E 139°47'0 0.0
2020-Jan-01 11:01N 35°38' E 139°47'0 0.0
2020-Jan-01 10:00N 35°38' E 139°47'0 0.0
2020-Jan-01 08:29N 35°38' E 139°47'0 0.0
2020-Jan-01 07:18N 35°38' E 139°47'0 0.0
2020-Jan-01 05:40N 35°38' E 139°47'0 0.0
2020-Jan-01 03:29N 35°38' E 139°47'0 0.0
2020-Jan-01 02:28N 35°38' E 139°47'0 0.0
2020-Jan-01 01:30N 35°38' E 139°47'0 0.0
2019-Dec-31 23:30N 35°38' E 139°47'0 0.0
2019-Dec-31 21:59N 35°38' E 139°47'0 0.0
2019-Dec-31 21:00N 35°38' E 139°47'0 0.0
2019-Dec-31 20:30N 35°38' E 139°47'0 0.0
2019-Dec-31 18:58N 35°38' E 139°47'0 0.0
2019-Dec-31 17:55N 35°38' E 139°47'0 0.0
2019-Dec-31 17:06N 35°38' E 139°47'0 0.0
2019-Dec-31 15:30N 35°38' E 139°47'0 0.0
2019-Dec-31 14:29N 35°38' E 139°47'0 0.0
2019-Dec-31 14:00N 35°38' E 139°47'0 0.0
2019-Dec-31 12:28N 35°38' E 139°47'0 0.0
2019-Dec-31 11:05N 35°38' E 139°47'0 0.0
2019-Dec-31 07:58N 35°38' E 139°47'  

Dump ship's entire track history